sensor_id;sensor_type;location;lat;lon;timestamp;temperature;humidity
2623;DHT22;1321;48.690;9.022;2024-02-14T00:00:08;6.80;99.90
2623;DHT22;1321;48.690;9.022;2024-02-14T00:02:40;6.80;99.90
2623;DHT22;1321;48.690;9.022;2024-02-14T00:05:09;6.80;99.90
2623;DHT22;1321;48.690;9.022;2024-02-14T00:07:39;6.80;99.90
2623;DHT22;1321;48.690;9.022;2024-02-14T00:10:08;6.80;99.90
2623;DHT22;1321;48.690;9.022;2024-02-14T00:12:36;6.80;99.90
2623;DHT22;1321;48.690;9.022;2024-02-14T00:15:05;6.80;99.90
2623;DHT22;1321;48.690;9.022;2024-02-14T00:17:35;6.80;99.90
2623;DHT22;1321;48.690;9.022;2024-02-14T00:20:04;6.80;99.90
2623;DHT22;1321;48.690;9.022;2024-02-14T00:22:32;6.90;99.90
2623;DHT22;1321;48.690;9.022;2024-02-14T00:25:03;7.00;99.90
2623;DHT22;1321;48.690;9.022;2024-02-14T00:27:31;7.00;99.90
2623;DHT22;1321;48.690;9.022;2024-02-14T00:30:00;7.10;99.90
2623;DHT22;1321;48.690;9.022;2024-02-14T00:32:30;7.30;99.90
2623;DHT22;1321;48.690;9.022;2024-02-14T00:34:59;7.40;99.90
2623;DHT22;1321;48.690;9.022;2024-02-14T00:37:27;7.40;99.90
2623;DHT22;1321;48.690;9.022;2024-02-14T00:39:56;7.60;99.90
2623;DHT22;1321;48.690;9.022;2024-02-14T00:42:26;7.60;99.90
2623;DHT22;1321;48.690;9.022;2024-02-14T00:44:54;7.70;99.90
2623;DHT22;1321;48.690;9.022;2024-02-14T00:47:22;7.60;99.90
2623;DHT22;1321;48.690;9.022;2024-02-14T00:49:51;7.70;99.90
2623;DHT22;1321;48.690;9.022;2024-02-14T00:52:19;7.70;99.90
2623;DHT22;1321;48.690;9.022;2024-02-14T00:54:48;7.80;99.90
2623;DHT22;1321;48.690;9.022;2024-02-14T00:57:17;7.70;99.90
2623;DHT22;1321;48.690;9.022;2024-02-14T00:59:47;7.70;99.90
2623;DHT22;1321;48.690;9.022;2024-02-14T01:02:16;7.80;99.90
2623;DHT22;1321;48.690;9.022;2024-02-14T01:04:45;8.00;99.90
2623;DHT22;1321;48.690;9.022;2024-02-14T01:07:13;7.90;99.90
2623;DHT22;1321;48.690;9.022;2024-02-14T01:09:41;7.90;99.90
2623;DHT22;1321;48.690;9.022;2024-02-14T01:12:09;7.90;99.90
2623;DHT22;1321;48.690;9.022;2024-02-14T01:14:37;7.90;99.90
2623;DHT22;1321;48.690;9.022;2024-02-14T01:17:07;7.80;99.90
2623;DHT22;1321;48.690;9.022;2024-02-14T01:19:35;7.80;99.90
2623;DHT22;1321;48.690;9.022;2024-02-14T01:22:04;7.80;99.90
2623;DHT22;1321;48.690;9.022;2024-02-14T01:24:34;7.90;99.90
2623;DHT22;1321;48.690;9.022;2024-02-14T01:27:03;7.90;99.90
2623;DHT22;1321;48.690;9.022;2024-02-14T01:29:31;7.90;99.90
2623;DHT22;1321;48.690;9.022;2024-02-14T01:31:59;7.90;99.90
2623;DHT22;1321;48.690;9.022;2024-02-14T01:34:29;7.80;99.90
2623;DHT22;1321;48.690;9.022;2024-02-14T01:36:58;7.80;99.90
2623;DHT22;1321;48.690;9.022;2024-02-14T01:39:26;7.90;99.90
2623;DHT22;1321;48.690;9.022;2024-02-14T01:41:54;7.90;99.90
2623;DHT22;1321;48.690;9.022;2024-02-14T01:44:23;7.80;99.90
2623;DHT22;1321;48.690;9.022;2024-02-14T01:46:51;7.80;99.90
2623;DHT22;1321;48.690;9.022;2024-02-14T01:49:19;7.80;99.90
2623;DHT22;1321;48.690;9.022;2024-02-14T01:51:49;7.80;99.90
2623;DHT22;1321;48.690;9.022;2024-02-14T01:54:17;7.80;99.90
2623;DHT22;1321;48.690;9.022;2024-02-14T01:56:46;7.80;99.90
2623;DHT22;1321;48.690;9.022;2024-02-14T01:59:14;7.80;99.90
2623;DHT22;1321;48.690;9.022;2024-02-14T02:01:43;7.70;99.90
2623;DHT22;1321;48.690;9.022;2024-02-14T02:04:11;7.80;99.90
2623;DHT22;1321;48.690;9.022;2024-02-14T02:06:40;7.80;99.90
2623;DHT22;1321;48.690;9.022;2024-02-14T02:09:10;8.00;99.90
2623;DHT22;1321;48.690;9.022;2024-02-14T02:11:48;7.90;99.90
2623;DHT22;1321;48.690;9.022;2024-02-14T02:14:16;7.90;99.90
2623;DHT22;1321;48.690;9.022;2024-02-14T02:16:46;8.00;99.90
2623;DHT22;1321;48.690;9.022;2024-02-14T02:19:14;8.00;99.90
2623;DHT22;1321;48.690;9.022;2024-02-14T02:21:43;8.10;99.90
2623;DHT22;1321;48.690;9.022;2024-02-14T02:24:14;8.10;99.90
2623;DHT22;1321;48.690;9.022;2024-02-14T02:26:42;8.10;99.90
2623;DHT22;1321;48.690;9.022;2024-02-14T02:29:10;8.10;99.90
2623;DHT22;1321;48.690;9.022;2024-02-14T02:31:39;8.10;99.90
2623;DHT22;1321;48.690;9.022;2024-02-14T02:34:07;8.10;99.90
2623;DHT22;1321;48.690;9.022;2024-02-14T02:36:38;8.00;99.90
2623;DHT22;1321;48.690;9.022;2024-02-14T02:39:06;8.00;99.90
2623;DHT22;1321;48.690;9.022;2024-02-14T02:41:36;8.00;99.90
2623;DHT22;1321;48.690;9.022;2024-02-14T02:44:04;8.00;99.90
2623;DHT22;1321;48.690;9.022;2024-02-14T02:46:33;7.90;99.90
2623;DHT22;1321;48.690;9.022;2024-02-14T02:49:02;7.80;99.90
2623;DHT22;1321;48.690;9.022;2024-02-14T02:51:30;7.80;99.90
2623;DHT22;1321;48.690;9.022;2024-02-14T02:53:59;7.80;99.90
2623;DHT22;1321;48.690;9.022;2024-02-14T02:56:27;7.80;99.90
2623;DHT22;1321;48.690;9.022;2024-02-14T02:58:57;7.80;99.90
2623;DHT22;1321;48.690;9.022;2024-02-14T03:01:25;7.80;99.90
2623;DHT22;1321;48.690;9.022;2024-02-14T03:03:55;8.00;99.90
2623;DHT22;1321;48.690;9.022;2024-02-14T03:06:23;8.00;99.90
2623;DHT22;1321;48.690;9.022;2024-02-14T03:08:52;8.00;99.90
2623;DHT22;1321;48.690;9.022;2024-02-14T03:11:22;8.00;99.90
2623;DHT22;1321;48.690;9.022;2024-02-14T03:13:51;8.20;99.90
2623;DHT22;1321;48.690;9.022;2024-02-14T03:16:21;8.10;99.90
2623;DHT22;1321;48.690;9.022;2024-02-14T03:18:51;8.20;99.90
2623;DHT22;1321;48.690;9.022;2024-02-14T03:21:20;8.30;99.90
2623;DHT22;1321;48.690;9.022;2024-02-14T03:23:49;8.10;99.90
2623;DHT22;1321;48.690;9.022;2024-02-14T03:26:17;8.10;99.90
2623;DHT22;1321;48.690;9.022;2024-02-14T03:28:45;8.10;99.90
2623;DHT22;1321;48.690;9.022;2024-02-14T03:31:15;8.10;99.90
2623;DHT22;1321;48.690;9.022;2024-02-14T03:33:45;8.10;99.90
2623;DHT22;1321;48.690;9.022;2024-02-14T03:36:13;8.00;99.90
2623;DHT22;1321;48.690;9.022;2024-02-14T03:38:41;8.00;99.90
2623;DHT22;1321;48.690;9.022;2024-02-14T03:41:09;7.90;99.90
2623;DHT22;1321;48.690;9.022;2024-02-14T03:43:38;8.00;99.90
2623;DHT22;1321;48.690;9.022;2024-02-14T03:46:06;8.00;99.90
2623;DHT22;1321;48.690;9.022;2024-02-14T03:48:34;7.90;99.90
2623;DHT22;1321;48.690;9.022;2024-02-14T03:51:04;7.90;99.90
2623;DHT22;1321;48.690;9.022;2024-02-14T03:53:33;7.80;99.90
2623;DHT22;1321;48.690;9.022;2024-02-14T03:56:01;7.90;99.90
2623;DHT22;1321;48.690;9.022;2024-02-14T03:58:29;7.80;99.90
2623;DHT22;1321;48.690;9.022;2024-02-14T04:00:58;8.00;99.90
2623;DHT22;1321;48.690;9.022;2024-02-14T04:03:26;8.00;99.90
2623;DHT22;1321;48.690;9.022;2024-02-14T04:05:56;8.10;99.90
2623;DHT22;1321;48.690;9.022;2024-02-14T04:08:26;8.10;99.90
2623;DHT22;1321;48.690;9.022;2024-02-14T04:10:54;8.20;99.90
2623;DHT22;1321;48.690;9.022;2024-02-14T04:13:22;8.20;99.90
2623;DHT22;1321;48.690;9.022;2024-02-14T04:15:51;8.10;99.90
2623;DHT22;1321;48.690;9.022;2024-02-14T04:18:19;8.20;99.90
2623;DHT22;1321;48.690;9.022;2024-02-14T04:20:48;8.10;99.90
2623;DHT22;1321;48.690;9.022;2024-02-14T04:23:16;8.10;99.90
2623;DHT22;1321;48.690;9.022;2024-02-14T04:25:46;8.10;99.90
2623;DHT22;1321;48.690;9.022;2024-02-14T04:28:15;8.00;99.90
2623;DHT22;1321;48.690;9.022;2024-02-14T04:30:43;8.20;99.90
2623;DHT22;1321;48.690;9.022;2024-02-14T04:33:12;8.00;99.90
2623;DHT22;1321;48.690;9.022;2024-02-14T04:35:41;8.10;99.90
2623;DHT22;1321;48.690;9.022;2024-02-14T04:38:09;8.10;99.90
2623;DHT22;1321;48.690;9.022;2024-02-14T04:40:37;8.10;99.90
2623;DHT22;1321;48.690;9.022;2024-02-14T04:43:07;8.00;99.90
2623;DHT22;1321;48.690;9.022;2024-02-14T04:45:35;7.90;99.90
2623;DHT22;1321;48.690;9.022;2024-02-14T04:48:04;7.90;99.90
2623;DHT22;1321;48.690;9.022;2024-02-14T04:50:33;7.90;99.90
2623;DHT22;1321;48.690;9.022;2024-02-14T04:53:01;7.90;99.90
2623;DHT22;1321;48.690;9.022;2024-02-14T04:55:29;8.00;99.90
2623;DHT22;1321;48.690;9.022;2024-02-14T04:57:57;8.00;99.90
2623;DHT22;1321;48.690;9.022;2024-02-14T05:00:26;7.80;99.90
2623;DHT22;1321;48.690;9.022;2024-02-14T05:02:55;7.90;99.90
2623;DHT22;1321;48.690;9.022;2024-02-14T05:05:24;7.90;99.90
2623;DHT22;1321;48.690;9.022;2024-02-14T05:07:53;8.10;99.90
2623;DHT22;1321;48.690;9.022;2024-02-14T05:10:21;8.10;99.90
2623;DHT22;1321;48.690;9.022;2024-02-14T05:12:49;8.10;99.90
2623;DHT22;1321;48.690;9.022;2024-02-14T05:15:17;8.20;99.90
2623;DHT22;1321;48.690;9.022;2024-02-14T05:17:47;8.30;99.90
2623;DHT22;1321;48.690;9.022;2024-02-14T05:20:17;8.10;99.90
2623;DHT22;1321;48.690;9.022;2024-02-14T05:22:45;8.10;99.90
2623;DHT22;1321;48.690;9.022;2024-02-14T05:25:13;8.20;99.90
2623;DHT22;1321;48.690;9.022;2024-02-14T05:27:41;8.20;99.90
2623;DHT22;1321;48.690;9.022;2024-02-14T05:30:10;8.20;99.90
2623;DHT22;1321;48.690;9.022;2024-02-14T05:32:38;8.30;99.90
2623;DHT22;1321;48.690;9.022;2024-02-14T05:35:08;8.30;99.90
2623;DHT22;1321;48.690;9.022;2024-02-14T05:37:36;8.40;99.90
2623;DHT22;1321;48.690;9.022;2024-02-14T05:40:06;8.40;99.90
2623;DHT22;1321;48.690;9.022;2024-02-14T05:42:35;8.30;99.90
2623;DHT22;1321;48.690;9.022;2024-02-14T05:45:03;8.40;99.90
2623;DHT22;1321;48.690;9.022;2024-02-14T05:47:32;8.40;99.90
2623;DHT22;1321;48.690;9.022;2024-02-14T05:50:01;8.50;99.90
2623;DHT22;1321;48.690;9.022;2024-02-14T05:52:31;8.50;99.90
2623;DHT22;1321;48.690;9.022;2024-02-14T05:54:59;8.60;99.90
2623;DHT22;1321;48.690;9.022;2024-02-14T05:57:27;8.60;99.90
2623;DHT22;1321;48.690;9.022;2024-02-14T05:59:55;8.60;99.90
2623;DHT22;1321;48.690;9.022;2024-02-14T06:02:24;8.60;99.90
2623;DHT22;1321;48.690;9.022;2024-02-14T06:04:52;8.50;99.90
2623;DHT22;1321;48.690;9.022;2024-02-14T06:07:23;8.50;99.90
2623;DHT22;1321;48.690;9.022;2024-02-14T06:09:53;8.60;99.90
2623;DHT22;1321;48.690;9.022;2024-02-14T06:12:21;8.60;99.90
2623;DHT22;1321;48.690;9.022;2024-02-14T06:14:49;8.60;99.90
2623;DHT22;1321;48.690;9.022;2024-02-14T06:17:18;8.70;99.90
2623;DHT22;1321;48.690;9.022;2024-02-14T06:19:46;8.50;99.90
2623;DHT22;1321;48.690;9.022;2024-02-14T06:22:14;8.60;99.90
2623;DHT22;1321;48.690;9.022;2024-02-14T06:24:42;8.60;99.90
2623;DHT22;1321;48.690;9.022;2024-02-14T06:27:12;8.60;99.90
2623;DHT22;1321;48.690;9.022;2024-02-14T06:29:42;8.50;99.90
2623;DHT22;1321;48.690;9.022;2024-02-14T06:32:12;8.40;99.90
2623;DHT22;1321;48.690;9.022;2024-02-14T06:34:41;8.40;99.90
2623;DHT22;1321;48.690;9.022;2024-02-14T06:37:09;8.50;99.90
2623;DHT22;1321;48.690;9.022;2024-02-14T06:39:37;8.50;99.90
2623;DHT22;1321;48.690;9.022;2024-02-14T06:42:06;8.50;99.90
2623;DHT22;1321;48.690;9.022;2024-02-14T06:44:35;8.50;99.90
2623;DHT22;1321;48.690;9.022;2024-02-14T06:47:04;8.50;99.90
2623;DHT22;1321;48.690;9.022;2024-02-14T06:49:32;8.40;99.90
2623;DHT22;1321;48.690;9.022;2024-02-14T06:52:00;8.40;99.90
2623;DHT22;1321;48.690;9.022;2024-02-14T06:54:28;8.40;99.90
2623;DHT22;1321;48.690;9.022;2024-02-14T06:56:57;8.30;99.90
2623;DHT22;1321;48.690;9.022;2024-02-14T06:59:27;8.40;99.90
2623;DHT22;1321;48.690;9.022;2024-02-14T07:01:56;8.30;99.90
2623;DHT22;1321;48.690;9.022;2024-02-14T07:04:39;8.40;99.90
2623;DHT22;1321;48.690;9.022;2024-02-14T07:07:08;8.40;99.90
2623;DHT22;1321;48.690;9.022;2024-02-14T07:09:36;8.30;99.90
2623;DHT22;1321;48.690;9.022;2024-02-14T07:12:06;8.40;99.90
2623;DHT22;1321;48.690;9.022;2024-02-14T07:14:34;8.40;99.90
2623;DHT22;1321;48.690;9.022;2024-02-14T07:17:04;8.40;99.90
2623;DHT22;1321;48.690;9.022;2024-02-14T07:19:32;8.40;99.90
2623;DHT22;1321;48.690;9.022;2024-02-14T07:22:01;8.50;99.90
2623;DHT22;1321;48.690;9.022;2024-02-14T07:24:29;8.50;99.90
2623;DHT22;1321;48.690;9.022;2024-02-14T07:26:57;8.50;99.90
2623;DHT22;1321;48.690;9.022;2024-02-14T07:29:25;8.50;99.90
2623;DHT22;1321;48.690;9.022;2024-02-14T07:31:54;8.60;99.90
2623;DHT22;1321;48.690;9.022;2024-02-14T07:34:24;8.50;99.90
2623;DHT22;1321;48.690;9.022;2024-02-14T07:36:53;8.50;99.90
2623;DHT22;1321;48.690;9.022;2024-02-14T07:39:21;8.70;99.90
2623;DHT22;1321;48.690;9.022;2024-02-14T07:41:49;8.70;99.90
2623;DHT22;1321;48.690;9.022;2024-02-14T07:44:18;8.80;99.90
2623;DHT22;1321;48.690;9.022;2024-02-14T07:46:46;8.80;99.90
2623;DHT22;1321;48.690;9.022;2024-02-14T07:49:14;8.80;99.90
2623;DHT22;1321;48.690;9.022;2024-02-14T07:51:44;8.80;99.90
2623;DHT22;1321;48.690;9.022;2024-02-14T07:54:14;8.80;99.90
2623;DHT22;1321;48.690;9.022;2024-02-14T07:56:42;8.80;99.90
2623;DHT22;1321;48.690;9.022;2024-02-14T07:59:11;8.90;99.90
2623;DHT22;1321;48.690;9.022;2024-02-14T08:01:39;8.90;99.90
2623;DHT22;1321;48.690;9.022;2024-02-14T08:04:08;8.90;99.90
2623;DHT22;1321;48.690;9.022;2024-02-14T08:06:36;9.00;99.90
2623;DHT22;1321;48.690;9.022;2024-02-14T08:09:06;9.10;99.90
2623;DHT22;1321;48.690;9.022;2024-02-14T08:11:37;9.10;99.90
2623;DHT22;1321;48.690;9.022;2024-02-14T08:14:05;9.10;99.90
2623;DHT22;1321;48.690;9.022;2024-02-14T08:16:33;9.20;99.90
2623;DHT22;1321;48.690;9.022;2024-02-14T08:19:02;9.20;99.90
2623;DHT22;1321;48.690;9.022;2024-02-14T08:21:31;9.20;99.90
2623;DHT22;1321;48.690;9.022;2024-02-14T08:23:59;9.30;99.90
2623;DHT22;1321;48.690;9.022;2024-02-14T08:26:29;9.40;99.90
2623;DHT22;1321;48.690;9.022;2024-02-14T08:28:58;9.50;99.90
2623;DHT22;1321;48.690;9.022;2024-02-14T08:31:27;9.50;99.90
2623;DHT22;1321;48.690;9.022;2024-02-14T08:33:55;9.60;99.90
2623;DHT22;1321;48.690;9.022;2024-02-14T08:36:24;9.70;99.90
2623;DHT22;1321;48.690;9.022;2024-02-14T08:38:52;9.80;99.90
2623;DHT22;1321;48.690;9.022;2024-02-14T08:41:22;9.90;99.90
2623;DHT22;1321;48.690;9.022;2024-02-14T08:43:52;10.00;99.90
2623;DHT22;1321;48.690;9.022;2024-02-14T08:46:20;10.00;99.90
2623;DHT22;1321;48.690;9.022;2024-02-14T08:48:50;10.00;99.90
2623;DHT22;1321;48.690;9.022;2024-02-14T08:51:18;10.00;99.90
2623;DHT22;1321;48.690;9.022;2024-02-14T08:53:47;10.00;99.90
2623;DHT22;1321;48.690;9.022;2024-02-14T08:56:16;10.00;99.90
2623;DHT22;1321;48.690;9.022;2024-02-14T08:58:44;10.10;99.90
2623;DHT22;1321;48.690;9.022;2024-02-14T09:01:14;10.10;99.90
2623;DHT22;1321;48.690;9.022;2024-02-14T09:03:42;10.10;99.90
2623;DHT22;1321;48.690;9.022;2024-02-14T09:06:17;10.10;99.90
2623;DHT22;1321;48.690;9.022;2024-02-14T09:08:46;10.10;99.90
2623;DHT22;1321;48.690;9.022;2024-02-14T09:11:14;10.20;99.90
2623;DHT22;1321;48.690;9.022;2024-02-14T09:13:43;10.10;99.90
2623;DHT22;1321;48.690;9.022;2024-02-14T09:16:16;10.20;99.90
2623;DHT22;1321;48.690;9.022;2024-02-14T09:18:45;10.20;99.90
2623;DHT22;1321;48.690;9.022;2024-02-14T09:21:14;10.30;99.90
2623;DHT22;1321;48.690;9.022;2024-02-14T09:23:46;10.30;99.90
2623;DHT22;1321;48.690;9.022;2024-02-14T09:26:14;10.40;99.90
2623;DHT22;1321;48.690;9.022;2024-02-14T09:28:44;10.40;99.90
2623;DHT22;1321;48.690;9.022;2024-02-14T09:31:12;10.40;99.90
2623;DHT22;1321;48.690;9.022;2024-02-14T09:33:42;10.50;99.90
2623;DHT22;1321;48.690;9.022;2024-02-14T09:36:11;10.60;99.90
2623;DHT22;1321;48.690;9.022;2024-02-14T09:38:41;10.80;99.90
2623;DHT22;1321;48.690;9.022;2024-02-14T09:41:15;10.80;99.90
2623;DHT22;1321;48.690;9.022;2024-02-14T09:43:44;11.00;99.90
2623;DHT22;1321;48.690;9.022;2024-02-14T09:46:13;11.00;99.90
2623;DHT22;1321;48.690;9.022;2024-02-14T09:48:45;11.00;99.90
2623;DHT22;1321;48.690;9.022;2024-02-14T09:51:13;10.80;99.90
2623;DHT22;1321;48.690;9.022;2024-02-14T09:53:42;10.90;99.90
2623;DHT22;1321;48.690;9.022;2024-02-14T09:56:11;10.90;99.90
2623;DHT22;1321;48.690;9.022;2024-02-14T09:58:41;11.10;99.90
2623;DHT22;1321;48.690;9.022;2024-02-14T10:01:09;11.10;99.90
2623;DHT22;1321;48.690;9.022;2024-02-14T10:03:38;11.40;99.90
2623;DHT22;1321;48.690;9.022;2024-02-14T10:06:08;11.50;99.90
2623;DHT22;1321;48.690;9.022;2024-02-14T10:08:36;11.50;99.90
2623;DHT22;1321;48.690;9.022;2024-02-14T10:11:14;11.50;99.90
2623;DHT22;1321;48.690;9.022;2024-02-14T10:13:44;11.40;99.90
2623;DHT22;1321;48.690;9.022;2024-02-14T10:16:14;11.60;99.90
2623;DHT22;1321;48.690;9.022;2024-02-14T10:18:42;11.90;99.90
2623;DHT22;1321;48.690;9.022;2024-02-14T10:21:16;12.20;99.90
2623;DHT22;1321;48.690;9.022;2024-02-14T10:23:46;13.60;99.90
2623;DHT22;1321;48.690;9.022;2024-02-14T10:26:14;15.10;99.90
2623;DHT22;1321;48.690;9.022;2024-02-14T10:28:43;16.10;99.90
2623;DHT22;1321;48.690;9.022;2024-02-14T10:31:15;17.20;99.90
2623;DHT22;1321;48.690;9.022;2024-02-14T10:33:44;18.00;99.90
2623;DHT22;1321;48.690;9.022;2024-02-14T10:36:12;17.60;99.90
2623;DHT22;1321;48.690;9.022;2024-02-14T10:38:43;16.80;99.90
2623;DHT22;1321;48.690;9.022;2024-02-14T10:41:16;16.00;99.90
2623;DHT22;1321;48.690;9.022;2024-02-14T10:43:44;16.40;99.90
2623;DHT22;1321;48.690;9.022;2024-02-14T10:46:19;16.70;99.90
2623;DHT22;1321;48.690;9.022;2024-02-14T10:48:50;18.10;99.90
2623;DHT22;1321;48.690;9.022;2024-02-14T10:51:21;19.90;99.90
2623;DHT22;1321;48.690;9.022;2024-02-14T10:53:52;21.00;99.90
2623;DHT22;1321;48.690;9.022;2024-02-14T10:56:24;20.50;99.90
2623;DHT22;1321;48.690;9.022;2024-02-14T10:58:56;20.70;99.90
2623;DHT22;1321;48.690;9.022;2024-02-14T11:01:26;21.00;99.90
2623;DHT22;1321;48.690;9.022;2024-02-14T11:03:58;20.70;99.90
2623;DHT22;1321;48.690;9.022;2024-02-14T11:06:27;19.10;99.90
2623;DHT22;1321;48.690;9.022;2024-02-14T11:09:00;17.90;99.90
2623;DHT22;1321;48.690;9.022;2024-02-14T11:11:29;16.70;99.90
2623;DHT22;1321;48.690;9.022;2024-02-14T11:13:58;15.90;99.90
2623;DHT22;1321;48.690;9.022;2024-02-14T11:16:27;15.40;99.90
2623;DHT22;1321;48.690;9.022;2024-02-14T11:19:06;15.10;99.90
2623;DHT22;1321;48.690;9.022;2024-02-14T11:21:36;14.70;99.90
2623;DHT22;1321;48.690;9.022;2024-02-14T11:24:07;14.60;99.90
2623;DHT22;1321;48.690;9.022;2024-02-14T11:26:39;14.50;99.90
2623;DHT22;1321;48.690;9.022;2024-02-14T11:29:14;14.30;99.90
2623;DHT22;1321;48.690;9.022;2024-02-14T11:31:48;14.20;99.90
2623;DHT22;1321;48.690;9.022;2024-02-14T11:34:17;14.10;99.90
2623;DHT22;1321;48.690;9.022;2024-02-14T11:36:46;13.90;99.90
2623;DHT22;1321;48.690;9.022;2024-02-14T11:39:16;13.70;99.90
2623;DHT22;1321;48.690;9.022;2024-02-14T11:41:44;13.60;99.90
2623;DHT22;1321;48.690;9.022;2024-02-14T11:44:13;13.60;99.90
2623;DHT22;1321;48.690;9.022;2024-02-14T11:46:41;13.50;99.90
2623;DHT22;1321;48.690;9.022;2024-02-14T11:49:09;13.50;99.90
2623;DHT22;1321;48.690;9.022;2024-02-14T11:51:38;13.50;99.90
2623;DHT22;1321;48.690;9.022;2024-02-14T11:54:09;13.60;99.90
2623;DHT22;1321;48.690;9.022;2024-02-14T11:56:39;13.60;99.90
2623;DHT22;1321;48.690;9.022;2024-02-14T11:59:08;13.70;99.90
2623;DHT22;1321;48.690;9.022;2024-02-14T12:01:38;13.80;99.90
2623;DHT22;1321;48.690;9.022;2024-02-14T12:04:07;14.00;99.90
2623;DHT22;1321;48.690;9.022;2024-02-14T12:06:36;14.10;99.90
2623;DHT22;1321;48.690;9.022;2024-02-14T12:09:06;14.30;99.90
2623;DHT22;1321;48.690;9.022;2024-02-14T12:11:40;14.30;99.90
2623;DHT22;1321;48.690;9.022;2024-02-14T12:14:10;14.50;99.90
2623;DHT22;1321;48.690;9.022;2024-02-14T12:16:40;14.60;99.90
2623;DHT22;1321;48.690;9.022;2024-02-14T12:19:13;14.50;99.90
2623;DHT22;1321;48.690;9.022;2024-02-14T12:21:43;14.40;99.90
2623;DHT22;1321;48.690;9.022;2024-02-14T12:24:13;14.30;99.90
2623;DHT22;1321;48.690;9.022;2024-02-14T12:26:43;14.30;99.90
2623;DHT22;1321;48.690;9.022;2024-02-14T12:29:12;14.30;99.90
2623;DHT22;1321;48.690;9.022;2024-02-14T12:31:41;14.30;99.90
2623;DHT22;1321;48.690;9.022;2024-02-14T12:34:11;14.30;99.90
2623;DHT22;1321;48.690;9.022;2024-02-14T12:36:40;14.30;99.90
2623;DHT22;1321;48.690;9.022;2024-02-14T12:39:09;14.10;99.90
2623;DHT22;1321;48.690;9.022;2024-02-14T12:41:40;14.10;99.90
2623;DHT22;1321;48.690;9.022;2024-02-14T12:44:09;14.00;99.90
2623;DHT22;1321;48.690;9.022;2024-02-14T12:46:38;14.00;99.90
2623;DHT22;1321;48.690;9.022;2024-02-14T12:49:06;13.90;99.90
2623;DHT22;1321;48.690;9.022;2024-02-14T12:51:37;13.90;99.90
2623;DHT22;1321;48.690;9.022;2024-02-14T12:54:05;13.80;99.90
2623;DHT22;1321;48.690;9.022;2024-02-14T12:56:34;13.80;99.90
2623;DHT22;1321;48.690;9.022;2024-02-14T12:59:03;13.80;99.90
2623;DHT22;1321;48.690;9.022;2024-02-14T13:01:33;13.80;99.90
2623;DHT22;1321;48.690;9.022;2024-02-14T13:04:01;13.80;99.90
2623;DHT22;1321;48.690;9.022;2024-02-14T13:06:32;13.90;99.90
2623;DHT22;1321;48.690;9.022;2024-02-14T13:09:01;13.90;99.90
2623;DHT22;1321;48.690;9.022;2024-02-14T13:11:35;14.00;99.90
2623;DHT22;1321;48.690;9.022;2024-02-14T13:14:04;14.00;99.90
2623;DHT22;1321;48.690;9.022;2024-02-14T13:16:34;14.00;99.90
2623;DHT22;1321;48.690;9.022;2024-02-14T13:19:03;14.00;99.90
2623;DHT22;1321;48.690;9.022;2024-02-14T13:21:32;14.00;99.90
2623;DHT22;1321;48.690;9.022;2024-02-14T13:24:01;14.00;99.90
2623;DHT22;1321;48.690;9.022;2024-02-14T13:26:31;14.00;99.90
2623;DHT22;1321;48.690;9.022;2024-02-14T13:29:01;14.00;99.90
2623;DHT22;1321;48.690;9.022;2024-02-14T13:31:30;14.00;99.90
2623;DHT22;1321;48.690;9.022;2024-02-14T13:34:00;14.00;99.90
2623;DHT22;1321;48.690;9.022;2024-02-14T13:36:30;14.00;99.90
2623;DHT22;1321;48.690;9.022;2024-02-14T13:38:59;14.00;99.90
2623;DHT22;1321;48.690;9.022;2024-02-14T13:41:28;14.00;99.90
2623;DHT22;1321;48.690;9.022;2024-02-14T13:43:57;14.00;99.90
2623;DHT22;1321;48.690;9.022;2024-02-14T13:46:26;14.00;99.90
2623;DHT22;1321;48.690;9.022;2024-02-14T13:48:55;14.00;99.90
2623;DHT22;1321;48.690;9.022;2024-02-14T13:51:26;13.90;99.90
2623;DHT22;1321;48.690;9.022;2024-02-14T13:53:55;13.90;99.90
2623;DHT22;1321;48.690;9.022;2024-02-14T13:56:23;13.80;99.90
2623;DHT22;1321;48.690;9.022;2024-02-14T13:58:52;13.80;99.90
2623;DHT22;1321;48.690;9.022;2024-02-14T14:01:20;13.70;99.90
2623;DHT22;1321;48.690;9.022;2024-02-14T14:03:49;13.80;99.90
2623;DHT22;1321;48.690;9.022;2024-02-14T14:06:17;13.70;99.90
2623;DHT22;1321;48.690;9.022;2024-02-14T14:08:47;13.70;99.90
2623;DHT22;1321;48.690;9.022;2024-02-14T14:11:17;13.70;99.90
2623;DHT22;1321;48.690;9.022;2024-02-14T14:13:45;13.70;99.90
2623;DHT22;1321;48.690;9.022;2024-02-14T14:16:14;13.60;99.90
2623;DHT22;1321;48.690;9.022;2024-02-14T14:18:42;13.60;99.90
2623;DHT22;1321;48.690;9.022;2024-02-14T14:21:11;13.50;99.90
2623;DHT22;1321;48.690;9.022;2024-02-14T14:23:39;13.60;99.90
2623;DHT22;1321;48.690;9.022;2024-02-14T14:26:09;13.60;99.90
2623;DHT22;1321;48.690;9.022;2024-02-14T14:28:37;13.60;99.90
2623;DHT22;1321;48.690;9.022;2024-02-14T14:31:05;13.60;99.90
2623;DHT22;1321;48.690;9.022;2024-02-14T14:33:39;13.60;99.90
2623;DHT22;1321;48.690;9.022;2024-02-14T14:36:08;13.60;99.90
2623;DHT22;1321;48.690;9.022;2024-02-14T14:38:36;13.60;99.90
2623;DHT22;1321;48.690;9.022;2024-02-14T14:41:05;13.60;99.90
2623;DHT22;1321;48.690;9.022;2024-02-14T14:43:35;13.60;99.90
2623;DHT22;1321;48.690;9.022;2024-02-14T14:46:03;13.60;99.90
2623;DHT22;1321;48.690;9.022;2024-02-14T14:48:31;13.50;99.90
2623;DHT22;1321;48.690;9.022;2024-02-14T14:51:00;13.60;99.90
2623;DHT22;1321;48.690;9.022;2024-02-14T14:53:28;13.60;99.90
2623;DHT22;1321;48.690;9.022;2024-02-14T14:55:57;13.60;99.90
2623;DHT22;1321;48.690;9.022;2024-02-14T14:58:27;13.50;99.90
2623;DHT22;1321;48.690;9.022;2024-02-14T15:00:57;13.50;99.90
2623;DHT22;1321;48.690;9.022;2024-02-14T15:03:26;13.50;99.90
2623;DHT22;1321;48.690;9.022;2024-02-14T15:05:57;13.50;99.90
2623;DHT22;1321;48.690;9.022;2024-02-14T15:08:26;13.60;99.90
2623;DHT22;1321;48.690;9.022;2024-02-14T15:10:55;13.60;99.90
2623;DHT22;1321;48.690;9.022;2024-02-14T15:13:25;13.50;99.90
2623;DHT22;1321;48.690;9.022;2024-02-14T15:15:55;13.50;99.90
2623;DHT22;1321;48.690;9.022;2024-02-14T15:18:26;13.50;99.90
2623;DHT22;1321;48.690;9.022;2024-02-14T15:20:54;13.60;99.90
2623;DHT22;1321;48.690;9.022;2024-02-14T15:23:23;13.60;99.90
2623;DHT22;1321;48.690;9.022;2024-02-14T15:25:51;13.60;99.90
2623;DHT22;1321;48.690;9.022;2024-02-14T15:28:21;13.60;99.90
2623;DHT22;1321;48.690;9.022;2024-02-14T15:30:53;13.60;99.90
2623;DHT22;1321;48.690;9.022;2024-02-14T15:33:40;13.60;99.90
2623;DHT22;1321;48.690;9.022;2024-02-14T15:36:09;13.60;99.90
2623;DHT22;1321;48.690;9.022;2024-02-14T15:38:38;13.60;99.90
2623;DHT22;1321;48.690;9.022;2024-02-14T15:41:07;13.60;99.90
2623;DHT22;1321;48.690;9.022;2024-02-14T15:43:42;13.60;99.90
2623;DHT22;1321;48.690;9.022;2024-02-14T15:46:12;13.60;99.90
2623;DHT22;1321;48.690;9.022;2024-02-14T15:48:43;13.60;99.90
2623;DHT22;1321;48.690;9.022;2024-02-14T15:51:12;13.50;99.90
2623;DHT22;1321;48.690;9.022;2024-02-14T15:53:43;13.60;99.90
2623;DHT22;1321;48.690;9.022;2024-02-14T15:56:11;13.50;99.90
2623;DHT22;1321;48.690;9.022;2024-02-14T15:58:40;13.60;99.90
2623;DHT22;1321;48.690;9.022;2024-02-14T16:01:09;13.50;99.90
2623;DHT22;1321;48.690;9.022;2024-02-14T16:03:37;13.50;99.90
2623;DHT22;1321;48.690;9.022;2024-02-14T16:06:08;13.50;99.90
2623;DHT22;1321;48.690;9.022;2024-02-14T16:08:36;13.50;99.90
2623;DHT22;1321;48.690;9.022;2024-02-14T16:11:04;13.50;99.90
2623;DHT22;1321;48.690;9.022;2024-02-14T16:13:33;13.50;99.90
2623;DHT22;1321;48.690;9.022;2024-02-14T16:16:03;13.50;99.90
2623;DHT22;1321;48.690;9.022;2024-02-14T16:18:31;13.40;99.90
2623;DHT22;1321;48.690;9.022;2024-02-14T16:20:59;13.40;99.90